Gil Vicente — CSKG — position and weather

sailwx.info

Track history (hours):
 
Tides and Currents Weather Stations Pressure Air Temp Water Temp Dewpoint Dewpoint Depression Visibility Wind Speed Wind Dir Waves Ship Positions

Gil Vicente

Last reported at 2014-Oct-21 11:20 UTC. Time now 2014-Oct-21 15:18 UTC.
Position N 38°39' W 009°05'.

Length 49 m.

Type: Passenger vessel. MMSI: 263701390.

Date/timePositionNaut miles runAvg speedWind from/ knotsBaromVisibWave heightAir tempDewpointWater temp
2014-Oct-21 11:20N 38°39' W 009°05'2 2.0
2014-Oct-21 10:33N 38°40' W 009°07'2 1.6
2014-Oct-21 09:32N 38°39' W 009°05'1 1.4
2014-Oct-21 08:33N 38°40' W 009°06'0 0.4
2014-Oct-21 07:33N 38°40' W 009°07'2 1.8
2014-Oct-21 06:33N 38°39' W 009°05'0 0.0
2014-Oct-21 05:32N 38°39' W 009°05'4 0.6
2014-Oct-20 22:33N 38°42' W 009°08'1 1.3
2014-Oct-20 21:33N 38°41' W 009°08'0 0.4
2014-Oct-20 20:33N 38°41' W 009°08'3 2.7
2014-Oct-20 19:33N 38°39' W 009°05'0 0.1
2014-Oct-20 18:33N 38°39' W 009°05'0 0.2
2014-Oct-20 17:33N 38°39' W 009°05'2 1.9
2014-Oct-20 16:31N 38°40' W 009°07'2 1.9
2014-Oct-20 15:33N 38°39' W 009°05'0 0.0
2014-Oct-20 12:29N 38°39' W 009°05'1 1.4
2014-Oct-20 11:33N 38°40' W 009°06'1 0.5
2014-Oct-20 10:33N 38°39' W 009°06'1 0.8
2014-Oct-20 09:32N 38°39' W 009°05'0 0.1
2014-Oct-20 08:33N 38°39' W 009°05'0 0.1
2014-Oct-20 07:33N 38°39' W 009°05'1 1.2
2014-Oct-20 06:34N 38°40' W 009°06'1 1.0
2014-Oct-20 05:33N 38°39' W 009°05'0 0.0
2014-Oct-19 10:22N 38°39' W 009°05'0 0.2
2014-Oct-19 09:29N 38°39' W 009°05'1 1.3
2014-Oct-19 08:33N 38°40' W 009°06'0 0.1
2014-Oct-19 07:33N 38°40' W 009°06'0 0.1
2014-Oct-19 06:33N 38°40' W 009°06'1 1.0
2014-Oct-19 05:33N 38°40' W 009°08'1 1.3
2014-Oct-19 04:33N 38°42' W 009°08'3 3.0
2014-Oct-19 03:25N 38°39' W 009°05'0 0.0
2014-Oct-19 02:33N 38°39' W 009°05'0 0.0
2014-Oct-19 01:31N 38°39' W 009°05'0 0.3
2014-Oct-19 00:33N 38°39' W 009°05'0 0.3
2014-Oct-18 23:32N 38°39' W 009°05'0 0.4
2014-Oct-18 22:33N 38°39' W 009°05'1 0.9
2014-Oct-18 21:33N 38°40' W 009°06'0 0.2
2014-Oct-18 20:33N 38°40' W 009°06'0 0.2
2014-Oct-18 19:33N 38°40' W 009°06'1 1.5
2014-Oct-18 18:33N 38°41' W 009°08'0 0.1
2014-Oct-18 17:34N 38°41' W 009°08'0 0.1
2014-Oct-18 16:33N 38°41' W 009°08'0 0.0
2014-Oct-18 15:33N 38°41' W 009°08'0 0.3
2014-Oct-18 14:33N 38°41' W 009°08'3 3.1
2014-Oct-18 13:33N 38°39' W 009°05'0 0.0
2014-Oct-18 12:33N 38°39' W 009°05'1 1.3
2014-Oct-18 11:33N 38°40' W 009°06'0 0.1
2014-Oct-18 10:33N 38°40' W 009°06'0 0.2
2014-Oct-18 09:33N 38°40' W 009°06'0 0.2
2014-Oct-18 08:32N 38°40' W 009°06'0 0.0
2014-Oct-18 07:32N 38°40' W 009°06'0 0.4
2014-Oct-18 06:34N 38°40' W 009°07'1 1.0
2014-Oct-18 05:33N 38°41' W 009°07'2 1.9
2014-Oct-18 04:33N 38°42' W 009°08'4 1.2
2014-Oct-18 01:21N 38°39' W 009°05'0 0.4
2014-Oct-18 00:31N 38°39' W 009°05'0 0.1
2014-Oct-17 23:33N 38°39' W 009°05'0 0.1
2014-Oct-17 22:33N 38°39' W 009°05'1 1.1
2014-Oct-17 21:33N 38°40' W 009°06'0 0.2
2014-Oct-17 20:33N 38°40' W 009°06'2 1.6
2014-Oct-17 19:33N 38°39' W 009°05'0 0.0
2014-Oct-17 18:33N 38°39' W 009°05'1 1.3
2014-Oct-17 17:32N 38°40' W 009°06'3 2.7
2014-Oct-17 16:34N 38°42' W 009°08'3 0.3
2014-Oct-17 08:08N 38°40' W 009°06'1 2.1
2014-Oct-17 07:33N 38°39' W 009°05'0 0.1
2014-Oct-17 06:33N 38°39' W 009°05'0 0.0
2014-Oct-16 20:29N 38°39' W 009°05'0 0.0
2014-Oct-16 19:33N 38°39' W 009°05'3 3.4
2014-Oct-16 18:33N 38°42' W 009°08'2 2.0
2014-Oct-16 17:32N 38°40' W 009°06'2 1.6
2014-Oct-16 16:33N 38°39' W 009°05'0 0.0
2014-Oct-16 15:33N 38°39' W 009°05'0 0.1
2014-Oct-16 14:25N 38°39' W 009°05'1 0.5
2014-Oct-16 12:14N 38°40' W 009°06'1 0.8
2014-Oct-16 11:33N 38°40' W 009°07'1 1.0
2014-Oct-16 10:31N 38°39' W 009°06'1 0.7
2014-Oct-16 09:33N 38°39' W 009°05'0 0.0
2014-Oct-16 08:32N 38°39' W 009°05'0 0.0
2014-Oct-16 07:33N 38°39' W 009°05'1 1.3
2014-Oct-16 06:32N 38°40' W 009°06'3 0.3
2014-Oct-15 19:33N 38°42' W 009°08'0 0.4
2014-Oct-15 18:33N 38°42' W 009°08'1 0.8
2014-Oct-15 17:34N 38°42' W 009°08'3 3.1
2014-Oct-15 16:34N 38°39' W 009°05'4 3.7
2014-Oct-15 15:34N 38°42' W 009°08'1 1.3
2014-Oct-15 14:33N 38°41' W 009°08'0 0.2
2014-Oct-15 13:33N 38°41' W 009°08'3 0.2
2014-Oct-14 20:30N 38°39' W 009°05'0 0.0
2014-Oct-14 19:34N 38°39' W 009°05'3 3.5
2014-Oct-14 18:34N 38°42' W 009°08'2 2.0
2014-Oct-14 17:33N 38°40' W 009°07'2 1.8
2014-Oct-14 16:33N 38°39' W 009°05'0 0.0
2014-Oct-14 15:34N 38°39' W 009°05'0 0.0
2014-Oct-14 14:33N 38°39' W 009°05'3 0.6
2014-Oct-14 09:34N 38°41' W 009°08'3 3.1
2014-Oct-14 08:33N 38°39' W 009°05'1 1.1
2014-Oct-14 07:33N 38°40' W 009°06'3 2.9
2014-Oct-14 06:34N 38°42' W 009°08'0 0.3
2014-Oct-14 05:33N 38°42' W 009°08'0 0.1
2014-Oct-14 04:34N 38°42' W 009°08'4 1.3
2014-Oct-14 01:25N 38°39' W 009°05'0 0.4
2014-Oct-14 00:33N 38°39' W 009°05'0 0.1
2014-Oct-13 23:34N 38°39' W 009°05'0 0.1
2014-Oct-13 22:34N 38°39' W 009°05'1 1.0
2014-Oct-13 21:34N 38°40' W 009°06'0 0.0
2014-Oct-13 20:34N 38°40' W 009°06'1 1.5
2014-Oct-13 19:33N 38°39' W 009°05'0 0.0
2014-Oct-13 18:34N 38°39' W 009°05'1 0.7
2014-Oct-13 17:34N 38°39' W 009°06'3 3.2
2014-Oct-13 16:34N 38°42' W 009°08'4 0.9
2014-Oct-13 12:24N 38°39' W 009°05'1 1.7
2014-Oct-13 11:33N 38°40' W 009°06'0 0.2
2014-Oct-13 10:33N 38°40' W 009°06'1 1.3
2014-Oct-13 09:33N 38°39' W 009°05'0 0.0
2014-Oct-13 08:33N 38°39' W 009°05'0 0.1
2014-Oct-13 07:33N 38°39' W 009°05'1 1.0
2014-Oct-13 06:33N 38°39' W 009°06'1 0.9
2014-Oct-13 05:34N 38°39' W 009°05'0 0.0
2014-Oct-12 10:31N 38°39' W 009°05'1 1.1
2014-Oct-12 09:33N 38°40' W 009°06'0 0.2
2014-Oct-12 08:34N 38°40' W 009°06'0 0.2
2014-Oct-12 07:34N 38°40' W 009°06'0 0.4
2014-Oct-12 06:33N 38°40' W 009°07'1 1.2
2014-Oct-12 05:33N 38°41' W 009°08'1 0.8
2014-Oct-12 04:33N 38°42' W 009°08'3 3.3
2014-Oct-12 03:33N 38°39' W 009°05'0 0.0
2014-Oct-12 02:33N 38°39' W 009°05'0 0.0
2014-Oct-12 01:33N 38°39' W 009°05'0 0.5
2014-Oct-12 00:34N 38°39' W 009°05'0 0.0
2014-Oct-11 23:34N 38°39' W 009°05'0 0.1
2014-Oct-11 22:33N 38°39' W 009°05'1 0.8
2014-Oct-11 21:34N 38°40' W 009°06'1 0.6
2014-Oct-11 20:33N 38°40' W 009°07'0 0.3
2014-Oct-11 19:33N 38°40' W 009°07'1 1.0
2014-Oct-11 18:34N 38°40' W 009°08'1 0.7
2014-Oct-11 17:34N 38°41' W 009°08'0 0.3
2014-Oct-11 16:34N 38°41' W 009°08'0 0.1
2014-Oct-11 15:34N 38°41' W 009°08'0 0.2
2014-Oct-11 14:33N 38°41' W 009°08'3 3.1
2014-Oct-11 13:33N 38°39' W 009°05'0 0.0
2014-Oct-11 12:33N 38°39' W 009°05'1 1.4
2014-Oct-11 11:34N 38°40' W 009°06'  
Track history (hours):
 
Tides and Currents Weather Stations Pressure Air Temp Water Temp Dewpoint Dewpoint Depression Visibility Wind Speed Wind Dir Waves Ship Positions

Gil Vicente

Last reported at 2014-Oct-21 11:20 UTC. Time now 2014-Oct-21 15:18 UTC.
Position N 38°39' W 009°05'.

Length 49 m.

Type: Passenger vessel. MMSI: 263701390.

Date/timePositionNaut miles runAvg speedWind from/ knotsBaromVisibWave heightAir tempDewpointWater temp
2014-Oct-21 11:20N 38°39' W 009°05'2 2.0
2014-Oct-21 10:33N 38°40' W 009°07'2 1.6
2014-Oct-21 09:32N 38°39' W 009°05'1 1.4
2014-Oct-21 08:33N 38°40' W 009°06'0 0.4
2014-Oct-21 07:33N 38°40' W 009°07'2 1.8
2014-Oct-21 06:33N 38°39' W 009°05'0 0.0
2014-Oct-21 05:32N 38°39' W 009°05'4 0.6
2014-Oct-20 22:33N 38°42' W 009°08'1 1.3
2014-Oct-20 21:33N 38°41' W 009°08'0 0.4
2014-Oct-20 20:33N 38°41' W 009°08'3 2.7
2014-Oct-20 19:33N 38°39' W 009°05'0 0.1
2014-Oct-20 18:33N 38°39' W 009°05'0 0.2
2014-Oct-20 17:33N 38°39' W 009°05'2 1.9
2014-Oct-20 16:31N 38°40' W 009°07'2 1.9
2014-Oct-20 15:33N 38°39' W 009°05'0 0.0
2014-Oct-20 12:29N 38°39' W 009°05'1 1.4
2014-Oct-20 11:33N 38°40' W 009°06'1 0.5
2014-Oct-20 10:33N 38°39' W 009°06'1 0.8
2014-Oct-20 09:32N 38°39' W 009°05'0 0.1
2014-Oct-20 08:33N 38°39' W 009°05'0 0.1
2014-Oct-20 07:33N 38°39' W 009°05'1 1.2
2014-Oct-20 06:34N 38°40' W 009°06'1 1.0
2014-Oct-20 05:33N 38°39' W 009°05'0 0.0
2014-Oct-19 10:22N 38°39' W 009°05'0 0.2
2014-Oct-19 09:29N 38°39' W 009°05'1 1.3
2014-Oct-19 08:33N 38°40' W 009°06'0 0.1
2014-Oct-19 07:33N 38°40' W 009°06'0 0.1
2014-Oct-19 06:33N 38°40' W 009°06'1 1.0
2014-Oct-19 05:33N 38°40' W 009°08'1 1.3
2014-Oct-19 04:33N 38°42' W 009°08'3 3.0
2014-Oct-19 03:25N 38°39' W 009°05'0 0.0
2014-Oct-19 02:33N 38°39' W 009°05'0 0.0
2014-Oct-19 01:31N 38°39' W 009°05'0 0.3
2014-Oct-19 00:33N 38°39' W 009°05'0 0.3
2014-Oct-18 23:32N 38°39' W 009°05'0 0.4
2014-Oct-18 22:33N 38°39' W 009°05'1 0.9
2014-Oct-18 21:33N 38°40' W 009°06'0 0.2
2014-Oct-18 20:33N 38°40' W 009°06'0 0.2
2014-Oct-18 19:33N 38°40' W 009°06'1 1.5
2014-Oct-18 18:33N 38°41' W 009°08'0 0.1
2014-Oct-18 17:34N 38°41' W 009°08'0 0.1
2014-Oct-18 16:33N 38°41' W 009°08'0 0.0
2014-Oct-18 15:33N 38°41' W 009°08'0 0.3
2014-Oct-18 14:33N 38°41' W 009°08'3 3.1
2014-Oct-18 13:33N 38°39' W 009°05'0 0.0
2014-Oct-18 12:33N 38°39' W 009°05'1 1.3
2014-Oct-18 11:33N 38°40' W 009°06'0 0.1
2014-Oct-18 10:33N 38°40' W 009°06'0 0.2
2014-Oct-18 09:33N 38°40' W 009°06'0 0.2
2014-Oct-18 08:32N 38°40' W 009°06'0 0.0
2014-Oct-18 07:32N 38°40' W 009°06'0 0.4
2014-Oct-18 06:34N 38°40' W 009°07'1 1.0
2014-Oct-18 05:33N 38°41' W 009°07'2 1.9
2014-Oct-18 04:33N 38°42' W 009°08'4 1.2
2014-Oct-18 01:21N 38°39' W 009°05'0 0.4
2014-Oct-18 00:31N 38°39' W 009°05'0 0.1
2014-Oct-17 23:33N 38°39' W 009°05'0 0.1
2014-Oct-17 22:33N 38°39' W 009°05'1 1.1
2014-Oct-17 21:33N 38°40' W 009°06'0 0.2
2014-Oct-17 20:33N 38°40' W 009°06'2 1.6
2014-Oct-17 19:33N 38°39' W 009°05'0 0.0
2014-Oct-17 18:33N 38°39' W 009°05'1 1.3
2014-Oct-17 17:32N 38°40' W 009°06'3 2.7
2014-Oct-17 16:34N 38°42' W 009°08'3 0.3
2014-Oct-17 08:08N 38°40' W 009°06'1 2.1
2014-Oct-17 07:33N 38°39' W 009°05'0 0.1
2014-Oct-17 06:33N 38°39' W 009°05'0 0.0
2014-Oct-16 20:29N 38°39' W 009°05'0 0.0
2014-Oct-16 19:33N 38°39' W 009°05'3 3.4
2014-Oct-16 18:33N 38°42' W 009°08'2 2.0
2014-Oct-16 17:32N 38°40' W 009°06'2 1.6
2014-Oct-16 16:33N 38°39' W 009°05'0 0.0
2014-Oct-16 15:33N 38°39' W 009°05'0 0.1
2014-Oct-16 14:25N 38°39' W 009°05'1 0.5
2014-Oct-16 12:14N 38°40' W 009°06'1 0.8
2014-Oct-16 11:33N 38°40' W 009°07'1 1.0
2014-Oct-16 10:31N 38°39' W 009°06'1 0.7
2014-Oct-16 09:33N 38°39' W 009°05'0 0.0
2014-Oct-16 08:32N 38°39' W 009°05'0 0.0
2014-Oct-16 07:33N 38°39' W 009°05'1 1.3
2014-Oct-16 06:32N 38°40' W 009°06'3 0.3
2014-Oct-15 19:33N 38°42' W 009°08'0 0.4
2014-Oct-15 18:33N 38°42' W 009°08'1 0.8
2014-Oct-15 17:34N 38°42' W 009°08'3 3.1
2014-Oct-15 16:34N 38°39' W 009°05'4 3.7
2014-Oct-15 15:34N 38°42' W 009°08'1 1.3
2014-Oct-15 14:33N 38°41' W 009°08'0 0.2
2014-Oct-15 13:33N 38°41' W 009°08'3 0.2
2014-Oct-14 20:30N 38°39' W 009°05'0 0.0
2014-Oct-14 19:34N 38°39' W 009°05'3 3.5
2014-Oct-14 18:34N 38°42' W 009°08'2 2.0
2014-Oct-14 17:33N 38°40' W 009°07'2 1.8
2014-Oct-14 16:33N 38°39' W 009°05'0 0.0
2014-Oct-14 15:34N 38°39' W 009°05'0 0.0
2014-Oct-14 14:33N 38°39' W 009°05'3 0.6
2014-Oct-14 09:34N 38°41' W 009°08'3 3.1
2014-Oct-14 08:33N 38°39' W 009°05'1 1.1
2014-Oct-14 07:33N 38°40' W 009°06'3 2.9
2014-Oct-14 06:34N 38°42' W 009°08'0 0.3
2014-Oct-14 05:33N 38°42' W 009°08'0 0.1
2014-Oct-14 04:34N 38°42' W 009°08'4 1.3
2014-Oct-14 01:25N 38°39' W 009°05'0 0.4
2014-Oct-14 00:33N 38°39' W 009°05'0 0.1
2014-Oct-13 23:34N 38°39' W 009°05'0 0.1
2014-Oct-13 22:34N 38°39' W 009°05'1 1.0
2014-Oct-13 21:34N 38°40' W 009°06'0 0.0
2014-Oct-13 20:34N 38°40' W 009°06'1 1.5
2014-Oct-13 19:33N 38°39' W 009°05'0 0.0
2014-Oct-13 18:34N 38°39' W 009°05'1 0.7
2014-Oct-13 17:34N 38°39' W 009°06'3 3.2
2014-Oct-13 16:34N 38°42' W 009°08'4 0.9
2014-Oct-13 12:24N 38°39' W 009°05'1 1.7
2014-Oct-13 11:33N 38°40' W 009°06'0 0.2
2014-Oct-13 10:33N 38°40' W 009°06'1 1.3
2014-Oct-13 09:33N 38°39' W 009°05'0 0.0
2014-Oct-13 08:33N 38°39' W 009°05'0 0.1
2014-Oct-13 07:33N 38°39' W 009°05'1 1.0
2014-Oct-13 06:33N 38°39' W 009°06'1 0.9
2014-Oct-13 05:34N 38°39' W 009°05'0 0.0
2014-Oct-12 10:31N 38°39' W 009°05'1 1.1
2014-Oct-12 09:33N 38°40' W 009°06'0 0.2
2014-Oct-12 08:34N 38°40' W 009°06'0 0.2
2014-Oct-12 07:34N 38°40' W 009°06'0 0.4
2014-Oct-12 06:33N 38°40' W 009°07'1 1.2
2014-Oct-12 05:33N 38°41' W 009°08'1 0.8
2014-Oct-12 04:33N 38°42' W 009°08'3 3.3
2014-Oct-12 03:33N 38°39' W 009°05'0 0.0
2014-Oct-12 02:33N 38°39' W 009°05'0 0.0
2014-Oct-12 01:33N 38°39' W 009°05'0 0.5
2014-Oct-12 00:34N 38°39' W 009°05'0 0.0
2014-Oct-11 23:34N 38°39' W 009°05'0 0.1
2014-Oct-11 22:33N 38°39' W 009°05'1 0.8
2014-Oct-11 21:34N 38°40' W 009°06'1 0.6
2014-Oct-11 20:33N 38°40' W 009°07'0 0.3
2014-Oct-11 19:33N 38°40' W 009°07'1 1.0
2014-Oct-11 18:34N 38°40' W 009°08'1 0.7
2014-Oct-11 17:34N 38°41' W 009°08'0 0.3
2014-Oct-11 16:34N 38°41' W 009°08'0 0.1
2014-Oct-11 15:34N 38°41' W 009°08'0 0.2
2014-Oct-11 14:33N 38°41' W 009°08'3 3.1
2014-Oct-11 13:33N 38°39' W 009°05'0 0.0
2014-Oct-11 12:33N 38°39' W 009°05'1 1.4
2014-Oct-11 11:34N 38°40' W 009°06'  

Dump ship's entire track history